createdAt,value
2023-04-12T00:01:41.450Z,5.00
2023-04-12T00:04:11.084Z,5.30
2023-04-12T00:06:40.319Z,5.10
2023-04-12T00:09:08.832Z,5.75
2023-04-12T00:11:36.849Z,5.10
2023-04-12T00:14:04.684Z,4.35
2023-04-12T00:16:32.938Z,4.70
2023-04-12T00:19:01.842Z,5.15
2023-04-12T00:21:31.125Z,5.03
2023-04-12T00:23:59.260Z,5.77
2023-04-12T00:26:27.317Z,4.63
2023-04-12T00:28:55.493Z,5.40
2023-04-12T00:31:23.848Z,5.53
2023-04-12T00:33:51.819Z,5.47
2023-04-12T00:36:19.911Z,5.75
2023-04-12T00:38:49.424Z,5.80
2023-04-12T00:41:19.230Z,5.97
2023-04-12T00:43:47.406Z,6.32
2023-04-12T00:46:17.632Z,6.10
2023-04-12T00:48:48.053Z,6.47
2023-04-12T00:51:18.225Z,6.20
2023-04-12T00:53:46.481Z,5.53
2023-04-12T00:56:15.706Z,6.10
2023-04-12T00:58:43.612Z,5.40
2023-04-12T01:01:11.578Z,4.78
2023-04-12T01:03:53.999Z,5.78
2023-04-12T01:06:29.844Z,6.05
2023-04-12T01:09:04.801Z,5.75
2023-04-12T01:11:39.620Z,5.88
2023-04-12T01:14:12.111Z,6.47
2023-04-12T01:16:46.269Z,6.22
2023-04-12T01:19:30.838Z,5.50
2023-04-12T01:22:13.758Z,6.03
2023-04-12T01:24:53.046Z,7.25
2023-04-12T01:27:35.851Z,7.23
2023-04-12T01:30:07.456Z,6.95
2023-04-12T01:32:36.757Z,8.02
2023-04-12T01:35:07.895Z,6.80
2023-04-12T01:37:36.586Z,7.45
2023-04-12T01:40:06.211Z,7.13
2023-04-12T01:42:35.555Z,7.13
2023-04-12T01:45:04.848Z,7.07
2023-04-12T01:47:34.085Z,6.93
2023-04-12T01:50:13.032Z,8.32
2023-04-12T01:52:46.479Z,6.72
2023-04-12T01:55:16.123Z,7.05
2023-04-12T01:57:48.273Z,7.50
2023-04-12T02:00:18.034Z,7.38
2023-04-12T02:02:46.123Z,7.28
2023-04-12T02:05:14.277Z,6.88
2023-04-12T02:07:43.056Z,7.30
2023-04-12T02:10:15.096Z,6.57
2023-04-12T02:12:42.987Z,6.07
2023-04-12T02:15:13.299Z,6.57
2023-04-12T02:17:41.171Z,7.15
2023-04-12T02:20:11.935Z,7.88
2023-04-12T02:22:39.843Z,7.15
2023-04-12T02:25:08.451Z,7.32
2023-04-12T02:27:36.344Z,7.88
2023-04-12T02:30:05.278Z,7.25
2023-04-12T02:32:43.951Z,7.90
2023-04-12T02:35:12.673Z,7.80
2023-04-12T02:37:41.253Z,8.10
2023-04-12T02:40:11.654Z,7.00
2023-04-12T02:42:40.531Z,7.80
2023-04-12T02:45:09.514Z,7.20
2023-04-12T02:47:40.765Z,6.93
2023-04-12T02:50:09.729Z,6.80
2023-04-12T02:52:37.661Z,6.82
2023-04-12T02:55:06.309Z,7.70
2023-04-12T02:57:34.278Z,7.07
2023-04-12T03:00:06.672Z,7.80
2023-04-12T03:02:34.609Z,7.32
2023-04-12T03:05:04.997Z,7.97
2023-04-12T03:07:33.022Z,7.45
2023-04-12T03:10:00.964Z,7.03
2023-04-12T03:12:30.017Z,8.07
2023-04-12T03:14:57.981Z,7.28
2023-04-12T03:17:25.948Z,7.40
2023-04-12T03:19:53.885Z,7.63
2023-04-12T03:22:23.453Z,6.80
2023-04-12T03:24:51.764Z,7.80
2023-04-12T03:27:19.638Z,7.75
2023-04-12T03:29:47.753Z,8.32
2023-04-12T03:32:15.821Z,7.50
2023-04-12T03:34:43.708Z,7.82
2023-04-12T03:37:11.655Z,7.63
2023-04-12T03:39:41.134Z,7.03
2023-04-12T03:42:13.599Z,7.25
2023-04-12T03:44:49.847Z,7.78
2023-04-12T03:47:17.678Z,8.07
2023-04-12T03:49:54.201Z,9.27
2023-04-12T03:52:33.155Z,8.80
2023-04-12T03:55:02.473Z,9.13
2023-04-12T03:57:30.382Z,7.13
2023-04-12T03:59:58.192Z,9.02
2023-04-12T04:02:26.430Z,8.57
2023-04-12T04:04:54.658Z,8.35
2023-04-12T04:07:23.711Z,8.57
2023-04-12T04:09:51.682Z,8.38
2023-04-12T04:12:21.033Z,8.30
2023-04-12T04:14:48.867Z,8.75
2023-04-12T04:17:16.727Z,9.43
2023-04-12T04:19:44.633Z,10.70
2023-04-12T04:22:13.945Z,10.10
2023-04-12T04:24:42.750Z,9.82
2023-04-12T04:27:10.937Z,9.52
2023-04-12T04:29:44.500Z,9.77
2023-04-12T04:32:12.632Z,9.70
2023-04-12T04:34:40.807Z,8.80
2023-04-12T04:37:08.669Z,11.00
2023-04-12T04:39:36.593Z,9.95
2023-04-12T04:42:06.667Z,10.18
2023-04-12T04:44:36.230Z,11.70
2023-04-12T04:47:08.667Z,15.02
2023-04-12T04:49:37.399Z,17.92
2023-04-12T04:52:06.431Z,16.55
2023-04-12T04:54:34.232Z,18.80
2023-04-12T04:57:03.067Z,18.20
2023-04-12T04:59:31.247Z,18.58
2023-04-12T05:01:59.161Z,21.05
2023-04-12T05:04:28.463Z,20.77
2023-04-12T05:06:56.488Z,23.07
2023-04-12T05:09:24.380Z,21.13
2023-04-12T05:11:52.173Z,19.48
2023-04-12T05:14:20.436Z,19.70
2023-04-12T05:16:48.369Z,20.27
2023-04-12T05:19:16.417Z,19.40
2023-04-12T05:21:45.670Z,19.98
2023-04-12T05:24:13.543Z,20.25
2023-04-12T05:26:41.712Z,19.73
2023-04-12T05:29:09.677Z,19.92
2023-04-12T05:31:37.531Z,20.45
2023-04-12T05:34:05.447Z,20.42
2023-04-12T05:36:33.548Z,21.52
2023-04-12T05:39:02.755Z,18.75
2023-04-12T05:41:31.345Z,20.67
2023-04-12T05:43:59.252Z,19.38
2023-04-12T05:46:27.327Z,18.35
2023-04-12T05:48:55.410Z,19.48
2023-04-12T05:51:37.763Z,19.00
2023-04-12T05:54:10.733Z,19.00
2023-04-12T05:56:38.835Z,17.08
2023-04-12T05:59:06.762Z,16.17
2023-04-12T06:01:35.007Z,14.35
2023-04-12T06:04:04.234Z,15.30
2023-04-12T06:06:32.300Z,14.27
2023-04-12T06:09:01.151Z,13.70
2023-04-12T06:11:30.488Z,13.23
2023-04-12T06:13:58.459Z,13.63
2023-04-12T06:16:26.473Z,12.68
2023-04-12T06:18:54.499Z,11.50
2023-04-12T06:21:22.608Z,11.48
2023-04-12T06:23:50.483Z,11.18
2023-04-12T06:26:18.935Z,12.05
2023-04-12T06:28:48.288Z,11.43
2023-04-12T06:31:16.980Z,10.70
2023-04-12T06:33:45.001Z,10.55
2023-04-12T06:36:14.690Z,10.77
2023-04-12T06:38:43.208Z,10.50
2023-04-12T06:41:11.714Z,11.77
2023-04-12T06:43:39.619Z,11.30
2023-04-12T06:46:09.246Z,11.15
2023-04-12T06:48:37.110Z,11.07
2023-04-12T06:51:05.257Z,9.68
2023-04-12T06:53:35.076Z,9.77
2023-04-12T06:56:05.330Z,10.35
2023-04-12T06:58:33.176Z,10.75
2023-04-12T07:01:06.651Z,10.93
2023-04-12T07:03:36.064Z,11.05
2023-04-12T07:06:17.269Z,11.53
2023-04-12T07:08:49.666Z,11.55
2023-04-12T07:11:21.589Z,10.45
2023-04-12T07:13:50.185Z,11.02
2023-04-12T07:16:18.496Z,10.80
2023-04-12T07:18:48.459Z,10.95
2023-04-12T07:21:17.727Z,11.02
2023-04-12T07:23:46.660Z,11.85
2023-04-12T07:26:14.543Z,10.98
2023-04-12T07:28:42.421Z,11.20
2023-04-12T07:31:10.555Z,10.65
2023-04-12T07:33:41.356Z,9.35
2023-04-12T07:36:13.019Z,11.23
2023-04-12T07:38:40.911Z,11.35
2023-04-12T07:41:09.169Z,11.52
2023-04-12T07:43:37.094Z,11.50
2023-04-12T07:46:08.525Z,10.93
2023-04-12T07:48:36.765Z,10.15
2023-04-12T07:51:05.280Z,10.70
2023-04-12T07:53:34.585Z,10.02
2023-04-12T07:56:04.962Z,9.50
2023-04-12T07:58:34.293Z,9.50
2023-04-12T08:01:02.272Z,9.27
2023-04-12T08:03:30.375Z,8.73
2023-04-12T08:05:58.358Z,9.45
2023-04-12T08:08:26.330Z,8.77
2023-04-12T08:10:55.666Z,8.60
2023-04-12T08:13:23.654Z,8.18
2023-04-12T08:15:51.611Z,8.70
2023-04-12T08:18:19.672Z,9.18
2023-04-12T08:20:49.289Z,9.23
2023-04-12T08:23:17.684Z,8.88
2023-04-12T08:25:45.545Z,9.52
2023-04-12T08:28:14.883Z,8.88
2023-04-12T08:30:43.991Z,8.93
2023-04-12T08:33:11.886Z,8.80
2023-04-12T08:35:40.201Z,8.65
2023-04-12T08:40:21.864Z,8.57
2023-04-12T08:45:17.535Z,8.73
2023-04-12T08:47:46.652Z,8.38
2023-04-12T08:50:14.764Z,8.07
2023-04-12T08:52:43.955Z,8.18
2023-04-12T08:55:12.983Z,9.02
2023-04-12T08:57:43.172Z,8.45
2023-04-12T09:00:13.139Z,8.90
2023-04-12T09:02:43.369Z,8.32
2023-04-12T09:05:11.702Z,9.00
2023-04-12T09:07:39.622Z,9.65
2023-04-12T09:10:08.453Z,7.50
2023-04-12T09:12:36.387Z,7.80
2023-04-12T09:15:10.603Z,7.78
2023-04-12T09:17:38.929Z,8.15
2023-04-12T09:20:25.687Z,7.75
2023-04-12T09:22:55.617Z,8.13
2023-04-12T09:25:41.425Z,8.50
2023-04-12T09:28:24.339Z,8.23
2023-04-12T09:30:53.990Z,8.02
2023-04-12T09:33:23.357Z,7.47
2023-04-12T09:35:51.456Z,8.05
2023-04-12T09:38:19.575Z,8.05
2023-04-12T09:40:47.613Z,7.30
2023-04-12T09:43:15.875Z,8.55
2023-04-12T09:45:43.825Z,7.93
2023-04-12T09:48:21.848Z,7.65
2023-04-12T09:50:49.817Z,8.23
2023-04-12T09:53:19.470Z,7.32
2023-04-12T09:55:50.179Z,7.55
2023-04-12T09:58:21.362Z,7.95
2023-04-12T10:00:50.289Z,7.35
2023-04-12T10:03:21.514Z,7.10
2023-04-12T10:05:49.941Z,6.50
2023-04-12T10:08:18.337Z,7.75
2023-04-12T10:10:46.844Z,6.93
2023-04-12T10:13:16.081Z,6.60
2023-04-12T10:15:46.586Z,6.55
2023-04-12T10:18:15.768Z,6.65
2023-04-12T10:20:47.033Z,6.95
2023-04-12T10:23:14.986Z,7.00
2023-04-12T10:25:44.197Z,7.25
2023-04-12T10:28:16.513Z,6.57
2023-04-12T10:30:44.556Z,7.18
2023-04-12T10:33:14.780Z,7.43
2023-04-12T10:36:00.233Z,7.15
2023-04-12T10:38:35.878Z,8.43
2023-04-12T10:41:18.782Z,7.80
2023-04-12T10:43:47.478Z,6.93
2023-04-12T10:46:49.699Z,7.90
2023-04-12T10:49:18.600Z,6.82
2023-04-12T10:52:18.308Z,6.13
2023-04-12T10:54:46.820Z,6.97
2023-04-12T10:57:47.308Z,6.47
2023-04-12T11:00:16.449Z,6.85
2023-04-12T11:03:12.759Z,6.53
2023-04-12T11:06:20.022Z,6.78
2023-04-12T11:08:58.404Z,6.72
2023-04-12T11:11:27.544Z,6.80
2023-04-12T11:13:59.268Z,7.38
2023-04-12T11:16:27.254Z,6.45
2023-04-12T11:18:55.649Z,6.80
2023-04-12T11:21:23.750Z,6.72
2023-04-12T11:23:53.745Z,6.82
2023-04-12T11:26:26.086Z,6.65
2023-04-12T11:28:55.944Z,6.07
2023-04-12T11:31:24.558Z,6.10
2023-04-12T11:33:52.705Z,6.03
2023-04-12T11:36:20.737Z,6.30
2023-04-12T11:38:50.342Z,6.20
2023-04-12T11:41:18.711Z,5.90
2023-04-12T11:43:49.205Z,6.18
2023-04-12T11:48:47.025Z,6.65
2023-04-12T11:51:21.529Z,6.32
2023-04-12T11:53:54.398Z,6.80
2023-04-12T11:56:22.581Z,6.38
2023-04-12T11:58:52.185Z,6.30
2023-04-12T12:01:21.561Z,6.33
2023-04-12T12:03:50.406Z,5.95
2023-04-12T12:06:20.633Z,6.05
2023-04-12T12:08:50.836Z,6.03
2023-04-12T12:11:19.286Z,5.60
2023-04-12T12:13:48.323Z,6.25
2023-04-12T12:16:18.633Z,6.90
2023-04-12T12:18:52.504Z,6.30
2023-04-12T12:21:21.735Z,6.82
2023-04-12T12:23:50.922Z,5.55
2023-04-12T12:26:22.759Z,6.40
2023-04-12T12:28:52.459Z,6.68
2023-04-12T12:31:23.111Z,6.43
2023-04-12T12:33:57.032Z,6.60
2023-04-12T12:36:32.257Z,6.38
2023-04-12T12:39:07.049Z,6.43
2023-04-12T12:41:35.564Z,7.03
2023-04-12T12:44:03.600Z,6.80
2023-04-12T12:49:06.066Z,6.47
2023-04-12T12:51:34.073Z,7.10
2023-04-12T12:54:02.237Z,7.40
2023-04-12T12:56:30.297Z,6.55
2023-04-12T12:58:58.345Z,7.25
2023-04-12T13:01:27.632Z,5.88
2023-04-12T13:03:58.879Z,7.18
2023-04-12T13:06:28.143Z,7.15
2023-04-12T13:08:56.626Z,6.25
2023-04-12T13:11:24.704Z,7.13
2023-04-12T13:13:52.640Z,6.30
2023-04-12T13:16:20.647Z,6.80
2023-04-12T13:18:48.728Z,6.85
2023-04-12T13:21:18.002Z,7.70
2023-04-12T13:23:46.105Z,6.78
2023-04-12T13:26:14.002Z,6.35
2023-04-12T13:28:41.885Z,6.07
2023-04-12T13:31:09.811Z,5.85
2023-04-12T13:33:37.771Z,6.55
2023-04-12T13:36:06.189Z,5.97
2023-04-12T13:38:35.772Z,6.88
2023-04-12T13:41:04.059Z,6.78
2023-04-12T13:43:31.971Z,6.18
2023-04-12T13:46:00.704Z,6.30
2023-04-12T13:48:28.979Z,6.25
2023-04-12T13:50:56.869Z,6.50
2023-04-12T13:53:24.848Z,6.63
2023-04-12T13:55:54.092Z,5.90
2023-04-12T13:58:21.972Z,5.93
2023-04-12T14:00:49.977Z,6.47
2023-04-12T14:03:18.046Z,6.22
2023-04-12T14:05:45.888Z,6.03
2023-04-12T14:08:13.715Z,6.10
2023-04-12T14:10:41.701Z,5.88
2023-04-12T14:13:11.068Z,6.55
2023-04-12T14:15:38.942Z,6.57
2023-04-12T14:18:06.944Z,6.22
2023-04-12T14:20:34.899Z,6.47
2023-04-12T14:23:02.813Z,6.22
2023-04-12T14:25:31.199Z,6.30
2023-04-12T14:27:59.080Z,6.40
2023-04-12T14:30:28.477Z,6.53
2023-04-12T14:32:56.390Z,7.05
2023-04-12T14:35:24.556Z,6.70
2023-04-12T14:37:52.424Z,6.55
2023-04-12T14:40:20.566Z,7.13
2023-04-12T14:42:48.766Z,6.97
2023-04-12T14:45:17.473Z,7.03
2023-04-12T14:47:46.776Z,6.47
2023-04-12T14:50:14.921Z,6.90
2023-04-12T14:52:42.846Z,7.10
2023-04-12T14:55:11.770Z,7.75
2023-04-12T14:57:40.061Z,6.68
2023-04-12T15:00:13.400Z,7.78
2023-04-12T15:02:41.797Z,7.68
2023-04-12T15:05:11.828Z,7.93
2023-04-12T15:07:39.822Z,7.03
2023-04-12T15:10:09.132Z,7.15
2023-04-12T15:12:37.366Z,7.55
2023-04-12T15:15:06.621Z,7.53
2023-04-12T15:17:35.199Z,7.93
2023-04-12T15:20:09.076Z,7.85
2023-04-12T15:22:38.563Z,8.50
2023-04-12T15:25:07.843Z,7.75
2023-04-12T15:27:35.708Z,7.68
2023-04-12T15:30:04.936Z,7.35
2023-04-12T15:32:36.528Z,8.25
2023-04-12T15:35:18.740Z,7.78
2023-04-12T15:37:55.611Z,7.82
2023-04-12T15:40:24.602Z,9.60
2023-04-12T15:42:52.618Z,8.60
2023-04-12T15:45:20.654Z,8.20
2023-04-12T15:47:48.666Z,7.65
2023-04-12T15:50:16.644Z,7.75
2023-04-12T15:52:44.483Z,8.25
2023-04-12T15:55:16.947Z,8.35
2023-04-12T15:57:44.957Z,7.93
2023-04-12T16:00:23.876Z,8.00
2023-04-12T16:02:56.286Z,8.30
2023-04-12T16:05:26.666Z,9.02
2023-04-12T16:07:56.563Z,8.50
2023-04-12T16:10:26.106Z,8.45
2023-04-12T16:12:55.483Z,8.50
2023-04-12T16:15:23.823Z,8.82
2023-04-12T16:17:55.592Z,8.60
2023-04-12T16:20:24.302Z,8.10
2023-04-12T16:22:55.157Z,8.40
2023-04-12T16:25:24.211Z,8.60
2023-04-12T16:27:53.613Z,8.35
2023-04-12T16:30:22.788Z,8.57
2023-04-12T16:32:52.159Z,8.50
2023-04-12T16:35:20.098Z,9.13
2023-04-12T16:37:48.519Z,9.05
2023-04-12T16:40:17.304Z,8.32
2023-04-12T16:42:45.866Z,9.27
2023-04-12T16:45:15.575Z,9.32
2023-04-12T16:47:43.931Z,9.13
2023-04-12T16:50:13.477Z,9.02
2023-04-12T16:52:41.970Z,8.85
2023-04-12T16:55:12.318Z,10.10
2023-04-12T16:57:41.202Z,9.73
2023-04-12T17:00:27.915Z,9.07
2023-04-12T17:02:57.430Z,9.27
2023-04-12T17:05:25.519Z,9.97
2023-04-12T17:07:55.151Z,9.23
2023-04-12T17:10:26.129Z,9.63
2023-04-12T17:12:56.659Z,8.95
2023-04-12T17:15:26.055Z,9.45
2023-04-12T17:17:55.475Z,9.90
2023-04-12T17:20:24.844Z,10.33
2023-04-12T17:22:53.248Z,9.95
2023-04-12T17:25:21.403Z,9.88
2023-04-12T17:27:51.739Z,10.27
2023-04-12T17:30:19.741Z,9.95
2023-04-12T17:32:48.621Z,9.65
2023-04-12T17:35:17.904Z,10.10
2023-04-12T17:37:48.062Z,9.93
2023-04-12T17:40:16.355Z,11.00
2023-04-12T17:42:45.073Z,9.65
2023-04-12T17:45:14.865Z,9.85
2023-04-12T17:47:43.876Z,9.90
2023-04-12T17:50:12.469Z,9.43
2023-04-12T17:52:40.628Z,9.13
2023-04-12T17:55:12.547Z,9.43
2023-04-12T17:57:40.586Z,9.93
2023-04-12T18:00:11.772Z,9.88
2023-04-12T18:02:40.364Z,9.57
2023-04-12T18:05:09.115Z,10.70
2023-04-12T18:07:37.123Z,9.90
2023-04-12T18:10:05.446Z,10.23
2023-04-12T18:12:34.669Z,10.50
2023-04-12T18:15:03.530Z,10.27
2023-04-12T18:17:31.839Z,10.07
2023-04-12T18:20:02.431Z,9.77
2023-04-12T18:22:31.008Z,11.13
2023-04-12T18:24:58.874Z,10.45
2023-04-12T18:27:26.814Z,10.05
2023-04-12T18:29:56.571Z,10.55
2023-04-12T18:32:24.542Z,11.10
2023-04-12T18:34:52.726Z,10.63
2023-04-12T18:37:20.801Z,9.85
2023-04-12T18:39:50.088Z,10.15
2023-04-12T18:42:19.774Z,9.90
2023-04-12T18:44:47.643Z,11.48
2023-04-12T18:47:17.640Z,10.55
2023-04-12T18:49:45.803Z,10.85
2023-04-12T18:52:13.707Z,9.82
2023-04-12T18:54:41.712Z,10.48
2023-04-12T18:57:09.715Z,10.13
2023-04-12T18:59:37.740Z,10.23
2023-04-12T19:02:05.763Z,10.10
2023-04-12T19:04:36.115Z,10.55
2023-04-12T19:07:04.053Z,10.52
2023-04-12T19:09:32.047Z,10.70
2023-04-12T19:11:59.931Z,10.77
2023-04-12T19:14:30.347Z,11.00
2023-04-12T19:19:25.971Z,10.23
2023-04-12T19:21:55.965Z,10.05
2023-04-12T19:24:23.842Z,9.73
2023-04-12T19:26:51.810Z,10.40
2023-04-12T19:29:19.920Z,10.35
2023-04-12T19:31:49.129Z,10.05
2023-04-12T19:34:18.044Z,10.43
2023-04-12T19:36:46.175Z,10.23
2023-04-12T19:39:15.648Z,10.07
2023-04-12T19:41:43.568Z,10.37
2023-04-12T19:44:11.994Z,10.15
2023-04-12T19:46:39.938Z,9.25
2023-04-12T19:49:08.509Z,9.48
2023-04-12T19:51:36.542Z,9.25
2023-04-12T19:54:04.748Z,10.18
2023-04-12T19:56:34.066Z,10.13
2023-04-12T19:59:02.650Z,9.35
2023-04-12T20:01:30.561Z,9.13
2023-04-12T20:03:58.586Z,9.52
2023-04-12T20:06:28.770Z,8.90
2023-04-12T20:08:56.967Z,9.05
2023-04-12T20:11:25.086Z,9.13
2023-04-12T20:13:54.975Z,9.35
2023-04-12T20:16:24.233Z,9.63
2023-04-12T20:18:56.183Z,10.13
2023-04-12T20:21:24.530Z,9.70
2023-04-12T20:23:52.437Z,10.15
2023-04-12T20:26:21.290Z,8.85
2023-04-12T20:28:49.624Z,9.27
2023-04-12T20:31:19.405Z,9.50
2023-04-12T20:33:47.401Z,9.93
2023-04-12T20:36:16.676Z,9.77
2023-04-12T20:38:45.519Z,9.85
2023-04-12T20:41:13.507Z,9.65
2023-04-12T20:45:54.240Z,9.93
2023-04-12T20:48:22.189Z,8.77
2023-04-12T20:50:52.797Z,9.32
2023-04-12T20:53:21.067Z,9.50
2023-04-12T20:55:49.027Z,9.50
2023-04-12T20:58:17.931Z,9.13
2023-04-12T21:00:46.809Z,9.00
2023-04-12T21:03:16.380Z,9.07
2023-04-12T21:05:46.070Z,9.68
2023-04-12T21:08:14.013Z,9.15
2023-04-12T21:10:42.773Z,8.77
2023-04-12T21:13:11.944Z,9.20
2023-04-12T21:15:40.431Z,9.43
2023-04-12T21:18:08.419Z,8.90
2023-04-12T21:20:38.228Z,9.43
2023-04-12T21:23:07.439Z,8.63
2023-04-12T21:25:35.584Z,9.45
2023-04-12T21:28:03.712Z,8.57
2023-04-12T21:30:32.290Z,9.15
2023-04-12T21:33:02.339Z,8.90
2023-04-12T21:35:31.159Z,9.88
2023-04-12T21:38:02.743Z,8.55
2023-04-12T21:40:30.657Z,8.90
2023-04-12T21:42:58.474Z,8.07
2023-04-12T21:45:27.393Z,9.00
2023-04-12T21:47:55.488Z,8.43
2023-04-12T21:50:23.556Z,9.38
2023-04-12T21:52:51.461Z,8.38
2023-04-12T21:55:21.412Z,8.60
2023-04-12T21:57:49.296Z,9.27
2023-04-12T22:00:18.299Z,9.02
2023-04-12T22:02:46.546Z,9.20
2023-04-12T22:05:14.537Z,8.75
2023-04-12T22:07:42.480Z,8.93
2023-04-12T22:10:12.039Z,8.52
2023-04-12T22:12:42.352Z,8.60
2023-04-12T22:15:13.609Z,8.52
2023-04-12T22:17:41.471Z,9.45
2023-04-12T22:20:11.058Z,8.88
2023-04-12T22:22:39.264Z,9.20
2023-04-12T22:25:12.000Z,8.57
2023-04-12T22:27:42.163Z,8.48
2023-04-12T22:30:11.876Z,7.97
2023-04-12T22:32:40.362Z,8.73
2023-04-12T22:35:10.163Z,8.65
2023-04-12T22:37:38.961Z,8.02
2023-04-12T22:40:11.747Z,8.00
2023-04-12T22:42:46.105Z,8.77
2023-04-12T22:45:14.773Z,7.72
2023-04-12T22:47:43.361Z,8.68
2023-04-12T22:50:12.917Z,8.50
2023-04-12T22:52:41.990Z,8.38
2023-04-12T22:55:12.711Z,8.13
2023-04-12T22:57:42.179Z,8.40
2023-04-12T23:00:15.764Z,8.33
2023-04-12T23:02:46.109Z,8.77
2023-04-12T23:05:14.517Z,8.23
2023-04-12T23:07:43.527Z,7.50
2023-04-12T23:10:12.236Z,8.63
2023-04-12T23:12:41.681Z,8.63
2023-04-12T23:15:10.691Z,8.93
2023-04-12T23:17:38.683Z,8.55
2023-04-12T23:20:10.801Z,7.85
2023-04-12T23:22:57.220Z,8.20
2023-04-12T23:25:37.972Z,8.57
2023-04-12T23:28:13.484Z,7.47
2023-04-12T23:30:44.400Z,7.72
2023-04-12T23:33:13.056Z,7.40
2023-04-12T23:35:41.665Z,7.60
2023-04-12T23:38:10.606Z,7.45
2023-04-12T23:40:38.572Z,7.53
2023-04-12T23:43:09.036Z,7.15
2023-04-12T23:45:37.115Z,7.40
2023-04-12T23:48:06.919Z,7.38
2023-04-12T23:50:35.064Z,7.63
2023-04-12T23:53:03.697Z,7.95
2023-04-12T23:55:31.767Z,7.93
2023-04-12T23:57:59.678Z,8.55
